Flight Track Log - Related Links

Times and Time Zones

All times are in EST time to prevent confusion due to time zone crossing. See the N203BK flight status page for this flight to view local times or setup timezone preferences in your user account.

Time Position Orientation Groundspeed Altitude Reporting Facility
EST Latitude Longitude Course Direction KTS MPH feet Rate Location/Type
Fri 05:50:02 PM 30.0083 -90.2142 52° Northeast 158 182 1,800  Level Houston Center
Fri 05:50:15 PM 30.0128 -90.2142 360° North 152 175 2,000 1,672 Climbing Houston Center
Fri 05:51:03 PM 30.0506 -90.2292 341° North 167 192 3,500 1,645 Climbing Houston Center
Fri 05:51:17 PM 30.0558 -90.2328 329° Northwest 161 185 3,700 1,475 Climbing Houston Center
Fri 05:52:04 PM 30.0892 -90.2589 326° Northwest 173 199 5,000 1,355 Climbing Houston Center
Fri 05:52:19 PM 30.0958 -90.2636 328° Northwest 166 191 5,100 1,403 Climbing Houston Center
Fri 05:53:21 PM 30.1369 -90.2919 329° Northwest 169 194 6,800 1,646 Climbing Houston Center
Fri 05:54:12 PM 30.1744 -90.3206 327° Northwest 163 188 8,200 1,645 Climbing Houston Center
Fri 05:54:23 PM 30.1836 -90.3244 340° North 165 190 8,500 1,377 Climbing Houston Center
Fri 05:55:13 PM 30.2172 -90.3500 327° Northwest 178 205 9,600 1,258 Climbing Houston Center
Fri 05:55:25 PM 30.2256 -90.3550 333° Northwest 172 198 9,800 400 Climbing Houston Center
Fri 05:56:13 PM 30.2642 -90.3844 327° Northwest 207 238 10,000 194 Climbing Houston Center
Fri 05:56:27 PM 30.2753 -90.3906 335° Northwest 205 236 10,000  Level Houston Center
Fri 05:57:08 PM 30.3153 -90.4208 327° Northwest 247 284 10,000  Level Houston Center
Fri 05:57:29 PM 30.3336 -90.4331 330° Northwest 241 277 10,000  Level Houston Center
Fri 05:58:31 PM 30.3947 -90.4758 329° Northwest 254 292 10,000  Level Houston Center
Fri 05:59:34 PM 30.4547 -90.5189 328° Northwest 254 292 10,000  Level Houston Center
Fri 06:00:36 PM 30.5258 -90.5706 328° Northwest 252 290 10,000  Level Houston Center
Fri 06:01:38 PM 30.5847 -90.6128 328° Northwest 249 287 10,000  Level Houston Center
Fri 06:02:40 PM 30.6439 -90.6553 328° Northwest 250 288 10,000  Level Houston Center
Fri 06:03:42 PM 30.7042 -90.6986 328° Northwest 252 290 10,000  Level Houston Center
Fri 06:04:44 PM 30.7617 -90.7414 327° Northwest 248 285 10,000  Level Houston Center
Fri 06:05:46 PM 30.8208 -90.7844 328° Northwest 249 287 10,000  Level Houston Center
Fri 06:06:48 PM 30.8922 -90.8358 328° Northwest 252 290 10,000  Level Houston Center
Fri 06:07:51 PM 30.9508 -90.8783 328° Northwest 248 285 10,000  Level Houston Center
Fri 06:08:53 PM 31.0092 -90.9217 328° Northwest 249 287 10,000  Level Houston Center
Fri 06:09:55 PM 31.0692 -90.9644 329° Northwest 252 290 10,000  Level Houston Center
Fri 06:10:57 PM 31.1267 -91.0069 328° Northwest 247 284 10,000  Level Houston Center
Fri 06:11:59 PM 31.1850 -91.0503 328° Northwest 248 285 10,000  Level Houston Center
Fri 06:13:01 PM 31.2561 -91.1017 328° Northwest 249 287 10,000  Level Houston Center
Fri 06:14:03 PM 31.3058 -91.1394 327° Northwest 250 288 10,000  Level Houston Center
Fri 06:15:05 PM 31.3769 -91.1917 328° Northwest 252 290 10,000  Level Houston Center
Fri 06:16:07 PM 31.4358 -91.2356 328° Northwest 251 289 10,000  Level Houston Center
Fri 06:17:09 PM 31.4961 -91.2794 328° Northwest 255 293 10,000  Level Houston Center
Fri 06:18:11 PM 31.5556 -91.3231 328° Northwest 254 292 10,000  Level Houston Center
Fri 06:19:13 PM 31.6142 -91.3661 328° Northwest 250 288 10,000  Level Houston Center
Fri 06:20:15 PM 31.6836 -91.4175 328° Northwest 247 284 10,000  Level Houston Center
Fri 06:21:17 PM 31.7389 -91.4597 327° Northwest 240 276 10,000  Level Houston Center
Fri 06:22:20 PM 31.7933 -91.4994 328° Northwest 233 268 10,000  Level Houston Center
Fri 06:23:22 PM 31.8497 -91.5411 328° Northwest 238 274 10,000 -387 Level Houston Center
Fri 06:24:24 PM 31.9069 -91.5831 328° Northwest 242 278 9,200 -871 Descending Houston Center
Fri 06:25:26 PM 31.9631 -91.6256 327° Northwest 243 280 8,200 -1,065 Descending Houston Center
Fri 06:26:28 PM 32.0308 -91.6758 328° Northwest 242 278 7,000 -1,161 Descending Houston Center
Fri 06:27:30 PM 32.0872 -91.7183 327° Northwest 241 277 5,800 -1,161 Descending Houston Center
Fri 06:28:32 PM 32.1414 -91.7600 327° Northwest 239 275 4,600 -1,161 Descending Houston Center
Fri 06:29:34 PM 32.1881 -91.8064 320° Northwest 230 265 3,400 -774 Descending Houston Center
Fri 06:30:36 PM 32.2403 -91.8683 315° West 229 264 3,000 -387 Descending Houston Center
Fri 06:32:00 PM 32.3208 -91.8989 328° Northwest  Level FlightAware
Fri 06:39:00 PM 32.5000 -92.0333 328° Northwest  Level FlightAware
Fri 06:40:00 PM 32.5109 -92.0377 328° Northwest  Level Estimated
Fri 06:41:00 PM 32.5109 -92.0377 328° Northwest  Level Estimated
Fri 06:42:00 PM 32.5109 -92.0377 328° Northwest  Level Estimated
Fri 06:43:00 PM 32.5109 -92.0377 328° Northwest  Level Estimated
Fri 06:44:00 PM 32.5109 -92.0377 328° Northwest  Level Estimated

Login

Don't have an account? Register now (free) for customized features, flight alerts, and more!